createdAt,value
2022-12-19T00:02:22.260Z,-0.36
2022-12-19T00:04:51.104Z,-0.15
2022-12-19T00:07:20.083Z,-0.22
2022-12-19T00:09:48.780Z,-0.23
2022-12-19T00:12:19.269Z,-0.29
2022-12-19T00:14:48.751Z,-0.18
2022-12-19T00:17:17.505Z,-0.25
2022-12-19T00:19:46.180Z,-0.22
2022-12-19T00:22:15.011Z,-0.30
2022-12-19T00:24:43.752Z,-0.33
2022-12-19T00:27:12.340Z,-0.21
2022-12-19T00:29:40.926Z,-0.29
2022-12-19T00:32:09.694Z,-0.40
2022-12-19T00:34:40.056Z,-0.44
2022-12-19T00:37:10.754Z,-0.53
2022-12-19T00:39:39.472Z,-0.53
2022-12-19T00:42:08.142Z,-0.54
2022-12-19T00:44:36.829Z,-0.36
2022-12-19T00:47:05.562Z,-0.26
2022-12-19T00:49:34.258Z,-0.21
2022-12-19T00:52:04.021Z,-0.20
2022-12-19T00:54:32.849Z,-0.08
2022-12-19T00:57:01.915Z,-0.19
2022-12-19T00:59:30.894Z,-0.28
2022-12-19T01:02:00.086Z,-0.25
2022-12-19T01:04:30.310Z,-0.37
2022-12-19T01:07:02.508Z,-0.38
2022-12-19T01:09:31.317Z,-0.31
2022-12-19T01:12:18.321Z,-0.26
2022-12-19T01:14:47.078Z,-0.30
2022-12-19T01:17:16.109Z,-0.17
2022-12-19T01:19:45.012Z,-0.16
2022-12-19T01:22:14.551Z,-0.35
2022-12-19T01:24:43.216Z,-0.26
2022-12-19T01:27:12.109Z,-0.25
2022-12-19T01:29:52.128Z,-0.24
2022-12-19T01:32:11.362Z,-0.28
2022-12-19T01:34:40.054Z,-0.14
2022-12-19T01:37:08.660Z,-0.15
2022-12-19T01:39:38.241Z,-0.19
2022-12-19T01:42:14.720Z,-0.20
2022-12-19T01:45:02.930Z,-0.24
2022-12-19T01:47:33.504Z,-0.31
2022-12-19T01:50:04.068Z,-0.25
2022-12-19T01:52:32.833Z,-0.28
2022-12-19T01:55:02.075Z,-0.33
2022-12-19T01:57:31.210Z,-0.28
2022-12-19T02:00:04.137Z,-0.38
2022-12-19T02:02:38.908Z,-0.35
2022-12-19T02:05:08.281Z,-0.30
2022-12-19T02:07:38.488Z,-0.45
2022-12-19T02:10:07.874Z,-0.45
2022-12-19T02:12:39.543Z,-0.43
2022-12-19T02:15:09.768Z,-0.57
2022-12-19T02:18:04.254Z,-0.42
2022-12-19T02:20:47.474Z,-0.34
2022-12-19T02:23:40.706Z,-0.67
2022-12-19T02:26:27.218Z,-0.52
2022-12-19T02:29:01.803Z,-0.47
2022-12-19T02:31:39.346Z,-0.50
2022-12-19T02:34:10.971Z,-0.46
2022-12-19T02:36:44.443Z,-0.32
2022-12-19T02:39:15.634Z,-0.39
2022-12-19T02:41:47.507Z,-0.27
2022-12-19T02:44:28.071Z,-0.33
2022-12-19T02:46:58.831Z,-0.34
2022-12-19T02:49:33.339Z,-0.51
2022-12-19T02:52:23.223Z,-0.58
2022-12-19T02:54:55.190Z,-0.50
2022-12-19T02:57:54.238Z,-0.52
2022-12-19T03:00:25.872Z,-0.66
2022-12-19T03:03:06.250Z,-0.74
2022-12-19T03:05:52.794Z,-0.59
2022-12-19T03:08:27.661Z,-0.53
2022-12-19T03:11:05.055Z,-0.45
2022-12-19T03:13:40.103Z,-0.36
2022-12-19T03:16:11.544Z,-0.39
2022-12-19T03:18:41.100Z,-0.41
2022-12-19T03:21:28.200Z,-0.49
2022-12-19T03:24:01.586Z,-0.47
2022-12-19T03:26:33.217Z,-0.47
2022-12-19T03:29:21.017Z,-0.49
2022-12-19T03:31:53.931Z,-0.44
2022-12-19T03:34:55.595Z,-0.35
2022-12-19T03:37:28.102Z,-0.41
2022-12-19T03:40:01.683Z,-0.50
2022-12-19T03:42:50.948Z,-0.32
2022-12-19T03:45:26.280Z,-0.38
2022-12-19T03:48:00.756Z,-0.45
2022-12-19T03:50:33.966Z,-0.64
2022-12-19T03:53:11.189Z,-0.55
2022-12-19T03:55:49.089Z,-0.64
2022-12-19T03:58:23.686Z,-0.72
2022-12-19T04:00:54.848Z,-0.84
2022-12-19T04:03:24.539Z,-0.74
2022-12-19T04:05:54.990Z,-0.71
2022-12-19T04:08:35.512Z,-0.71
2022-12-19T04:11:07.087Z,-0.68
2022-12-19T04:13:41.401Z,-0.93
2022-12-19T04:16:16.009Z,-1.08
2022-12-19T04:18:47.679Z,-1.03
2022-12-19T04:21:28.034Z,-1.08
2022-12-19T04:24:12.811Z,-0.97
2022-12-19T04:32:54.367Z,-0.90
2022-12-19T04:35:38.393Z,-0.88
2022-12-19T04:38:04.532Z,-0.86
2022-12-19T04:40:41.771Z,-0.86
2022-12-19T04:43:10.559Z,-0.93
2022-12-19T04:45:40.645Z,-0.78
2022-12-19T04:48:09.751Z,-0.68
2022-12-19T04:50:39.926Z,-0.77
2022-12-19T04:53:10.704Z,-0.74
2022-12-19T04:55:41.251Z,-0.65
2022-12-19T04:58:09.919Z,-0.47
2022-12-19T05:00:38.591Z,-0.57
2022-12-19T05:03:09.095Z,-0.40
2022-12-19T05:05:37.755Z,-0.38
2022-12-19T05:08:06.673Z,-0.47
2022-12-19T05:10:36.948Z,-0.49
2022-12-19T05:13:05.707Z,-0.77
2022-12-19T05:15:34.267Z,-0.88
2022-12-19T05:18:03.387Z,-1.06
2022-12-19T05:20:37.683Z,-0.95
2022-12-19T05:23:11.382Z,-0.90
2022-12-19T05:25:37.603Z,-0.95
2022-12-19T05:28:06.368Z,-1.03
2022-12-19T05:30:45.606Z,-1.03
2022-12-19T05:33:13.673Z,-1.21
2022-12-19T05:35:43.024Z,-1.01
2022-12-19T05:38:16.012Z,-0.98
2022-12-19T05:40:44.712Z,-0.94
2022-12-19T05:43:13.462Z,-0.92
2022-12-19T05:45:42.268Z,-1.00
2022-12-19T05:48:10.916Z,-1.01
2022-12-19T05:50:44.923Z,-0.99
2022-12-19T05:53:13.954Z,-0.95
2022-12-19T05:55:45.980Z,-0.86
2022-12-19T05:58:14.636Z,-0.89
2022-12-19T06:01:07.873Z,-0.75
2022-12-19T06:04:02.767Z,-0.58
2022-12-19T06:06:32.483Z,-0.60
2022-12-19T06:09:05.516Z,-0.46
2022-12-19T06:11:41.225Z,-0.36
2022-12-19T06:14:18.777Z,-0.57
2022-12-19T06:16:47.770Z,-0.34
2022-12-19T06:19:16.436Z,-0.11
2022-12-19T06:21:48.537Z,-0.11
2022-12-19T06:24:17.867Z,0.09
2022-12-19T06:26:55.332Z,0.11
2022-12-19T06:29:26.665Z,0.09
2022-12-19T06:31:55.806Z,0.01
2022-12-19T06:34:55.070Z,0.03
2022-12-19T06:36:54.844Z,0.11
2022-12-19T06:39:23.475Z,0.15
2022-12-19T06:42:11.233Z,0.11
2022-12-19T06:44:40.105Z,0.17
2022-12-19T06:47:08.733Z,0.03
2022-12-19T06:49:37.384Z,0.25
2022-12-19T06:52:09.128Z,0.67
2022-12-19T06:54:36.634Z,0.67
2022-12-19T06:57:05.240Z,0.58
2022-12-19T06:59:34.491Z,0.78
2022-12-19T07:02:21.329Z,0.95
2022-12-19T07:04:55.665Z,0.87
2022-12-19T07:07:24.331Z,0.84
2022-12-19T07:09:53.109Z,0.87
2022-12-19T07:12:25.404Z,0.93
2022-12-19T07:14:55.854Z,0.96
2022-12-19T07:17:26.742Z,0.92
2022-12-19T07:19:58.410Z,0.90
2022-12-19T07:22:29.949Z,0.68
2022-12-19T07:24:59.830Z,0.77
2022-12-19T07:27:35.476Z,0.67
2022-12-19T07:29:59.943Z,0.75
2022-12-19T07:32:33.206Z,0.84
2022-12-19T07:35:02.705Z,0.81
2022-12-19T07:37:32.585Z,1.07
2022-12-19T07:40:01.604Z,1.28
2022-12-19T07:42:32.861Z,1.49
2022-12-19T07:45:01.671Z,1.61
2022-12-19T07:47:36.565Z,0.84
2022-12-19T07:50:05.612Z,1.05
2022-12-19T07:52:34.273Z,0.86
2022-12-19T07:55:02.841Z,1.13
2022-12-19T07:57:32.961Z,1.08
2022-12-19T08:00:01.785Z,0.93
2022-12-19T08:02:33.904Z,1.04
2022-12-19T08:05:08.802Z,1.33
2022-12-19T08:07:37.979Z,1.44
2022-12-19T08:10:07.411Z,1.43
2022-12-19T08:15:56.031Z,0.77
2022-12-19T08:18:29.757Z,1.20
2022-12-19T08:24:01.224Z,0.75
2022-12-19T08:26:35.735Z,0.86
2022-12-19T08:29:13.276Z,1.13
2022-12-19T08:34:58.013Z,1.76
2022-12-19T08:37:32.079Z,1.67
2022-12-19T08:40:18.672Z,1.79
2022-12-19T08:42:47.732Z,1.76
2022-12-19T08:45:22.493Z,1.89
2022-12-19T08:47:58.913Z,2.00
2022-12-19T08:50:36.534Z,2.16
2022-12-19T08:53:05.367Z,2.12
2022-12-19T08:55:35.781Z,2.27
2022-12-19T08:58:19.581Z,2.27
2022-12-19T09:00:55.525Z,2.32
2022-12-19T09:03:50.057Z,2.14
2022-12-19T09:06:10.477Z,2.14
2022-12-19T09:08:37.974Z,2.29
2022-12-19T09:11:12.218Z,2.51
2022-12-19T09:13:42.503Z,2.38
2022-12-19T09:16:14.473Z,2.63
2022-12-19T09:18:48.784Z,2.67
2022-12-19T09:21:17.234Z,2.59
2022-12-19T09:23:54.534Z,2.73
2022-12-19T09:26:24.772Z,2.81
2022-12-19T09:28:55.203Z,2.83
2022-12-19T09:31:26.212Z,2.79
2022-12-19T09:33:54.918Z,2.88
2022-12-19T09:36:26.011Z,3.10
2022-12-19T09:38:56.744Z,3.08
2022-12-19T09:41:54.697Z,2.97
2022-12-19T09:44:47.372Z,3.12
2022-12-19T09:47:21.834Z,3.34
2022-12-19T09:49:54.224Z,3.23
2022-12-19T09:52:41.167Z,3.34
2022-12-19T09:55:30.824Z,3.29
2022-12-19T09:58:26.837Z,3.31
2022-12-19T10:01:00.106Z,3.23
2022-12-19T10:03:43.644Z,3.13
2022-12-19T10:07:11.271Z,3.62
2022-12-19T10:09:20.583Z,3.62
2022-12-19T10:12:38.936Z,3.73
2022-12-19T10:14:27.429Z,3.66
2022-12-19T10:17:35.707Z,3.81
2022-12-19T10:20:19.549Z,3.90
2022-12-19T10:23:17.929Z,3.90
2022-12-19T10:26:06.184Z,3.90
2022-12-19T10:29:00.167Z,3.95
2022-12-19T10:31:53.838Z,3.65
2022-12-19T10:34:25.424Z,3.56
2022-12-19T10:37:26.881Z,3.43
2022-12-19T10:39:45.458Z,3.35
2022-12-19T10:42:29.597Z,3.35
2022-12-19T10:45:01.147Z,3.40
2022-12-19T10:47:31.021Z,3.48
2022-12-19T10:50:05.469Z,3.89
2022-12-19T10:52:52.667Z,3.89
2022-12-19T10:55:26.906Z,4.06
2022-12-19T10:58:00.743Z,4.06
2022-12-19T11:00:36.617Z,3.96
2022-12-19T11:03:20.386Z,3.67
2022-12-19T11:05:58.402Z,3.45
2022-12-19T11:08:29.983Z,3.74
2022-12-19T11:14:37.240Z,4.04
2022-12-19T11:19:28.584Z,4.04
2022-12-19T11:21:01.945Z,4.25
2022-12-19T11:29:19.208Z,3.91
2022-12-19T11:29:45.634Z,3.91
2022-12-19T11:30:06.171Z,4.09
2022-12-19T11:30:42.984Z,4.16
2022-12-19T11:32:41.481Z,3.86
2022-12-19T11:35:09.749Z,3.83
2022-12-19T11:37:44.377Z,3.59
2022-12-19T11:40:28.072Z,3.59
2022-12-19T11:43:43.145Z,3.75
2022-12-19T11:45:44.300Z,3.75
2022-12-19T11:48:15.948Z,3.70
2022-12-19T11:51:17.624Z,3.82
2022-12-19T11:54:04.057Z,3.68
2022-12-19T11:56:34.219Z,3.64
2022-12-19T11:59:05.994Z,3.90
2022-12-19T12:02:00.061Z,3.86
2022-12-19T12:16:55.023Z,3.44
2022-12-19T12:24:15.039Z,3.35
2022-12-19T12:31:09.793Z,3.46
2022-12-19T12:31:20.598Z,3.45
2022-12-19T12:31:50.627Z,3.46
2022-12-19T12:31:51.872Z,3.60
2022-12-19T12:35:38.053Z,3.52
2022-12-19T12:35:51.826Z,3.52
2022-12-19T12:38:14.584Z,3.55
2022-12-19T12:40:26.476Z,3.45
2022-12-19T12:43:00.905Z,3.42
2022-12-19T12:45:39.742Z,3.42
2022-12-19T12:48:28.292Z,3.56
2022-12-19T12:51:00.551Z,3.69
2022-12-19T12:53:45.125Z,3.84
2022-12-19T12:56:16.330Z,3.48
2022-12-19T12:58:48.787Z,3.52
2022-12-19T13:01:31.284Z,3.46
2022-12-19T13:04:15.131Z,3.51
2022-12-19T13:06:52.652Z,3.68
2022-12-19T13:09:35.306Z,3.53
2022-12-19T13:12:43.114Z,3.59
2022-12-19T13:15:20.833Z,3.62
2022-12-19T13:17:55.158Z,3.54
2022-12-19T13:20:29.872Z,3.43
2022-12-19T13:23:07.801Z,3.50
2022-12-19T13:25:40.294Z,3.70
2022-12-19T13:28:17.732Z,3.70
2022-12-19T13:31:18.690Z,3.62
2022-12-19T13:33:55.753Z,3.28
2022-12-19T13:39:51.442Z,3.28
2022-12-19T13:39:54.510Z,3.22
2022-12-19T13:42:34.558Z,3.26
2022-12-19T13:45:12.009Z,3.26
2022-12-19T13:47:44.220Z,3.34
2022-12-19T13:50:18.604Z,3.23
2022-12-19T13:52:52.536Z,3.12
2022-12-19T13:55:22.018Z,3.15
2022-12-19T13:57:55.735Z,3.14
2022-12-19T14:00:33.129Z,3.09
2022-12-19T14:03:04.984Z,3.11
2022-12-19T14:06:16.939Z,3.18
2022-12-19T14:08:12.889Z,3.24
2022-12-19T14:11:34.278Z,3.17
2022-12-19T14:13:57.570Z,3.01
2022-12-19T14:16:19.537Z,3.06
2022-12-19T14:18:51.397Z,2.92
2022-12-19T14:22:10.701Z,2.95
2022-12-19T14:24:32.834Z,2.91
2022-12-19T14:28:18.862Z,3.04
2022-12-19T14:30:30.270Z,2.75
2022-12-19T14:33:40.325Z,2.80
2022-12-19T14:36:06.655Z,2.83
2022-12-19T14:39:21.048Z,2.87
2022-12-19T14:40:26.212Z,2.81
2022-12-19T14:43:56.293Z,2.79
2022-12-19T14:52:02.642Z,2.67
2022-12-19T14:54:09.345Z,2.72
2022-12-19T14:54:30.491Z,2.73
2022-12-19T14:57:04.587Z,2.55
2022-12-19T14:59:46.277Z,2.53
2022-12-19T15:05:12.550Z,2.34
2022-12-19T15:07:51.930Z,2.32
2022-12-19T15:11:00.712Z,2.32
2022-12-19T15:14:54.989Z,2.26
2022-12-19T15:15:56.830Z,2.28
2022-12-19T15:18:46.261Z,2.17
2022-12-19T15:21:16.249Z,2.19
2022-12-19T15:23:50.741Z,2.15
2022-12-19T15:26:48.664Z,1.90
2022-12-19T15:29:15.376Z,2.03
2022-12-19T15:31:47.704Z,2.09
2022-12-19T15:34:36.820Z,1.90
2022-12-19T15:37:02.443Z,2.13
2022-12-19T15:39:31.106Z,2.07
2022-12-19T15:42:01.278Z,2.00
2022-12-19T15:44:38.876Z,1.99
2022-12-19T15:47:10.910Z,1.90
2022-12-19T15:49:39.812Z,1.89
2022-12-19T15:52:24.081Z,1.97
2022-12-19T15:54:52.749Z,1.94
2022-12-19T15:57:27.112Z,2.05
2022-12-19T15:59:57.849Z,1.88
2022-12-19T16:02:49.401Z,1.89
2022-12-19T16:05:03.901Z,1.88
2022-12-19T16:07:28.852Z,1.80
2022-12-19T16:09:58.286Z,1.79
2022-12-19T16:12:31.728Z,1.85
2022-12-19T16:15:04.635Z,1.81
2022-12-19T16:17:34.422Z,1.74
2022-12-19T16:20:05.960Z,1.74
2022-12-19T16:22:34.635Z,1.76
2022-12-19T16:25:05.369Z,1.79
2022-12-19T16:27:41.152Z,1.77
2022-12-19T16:30:22.196Z,1.83
2022-12-19T16:32:51.317Z,1.91
2022-12-19T16:35:40.202Z,1.82
2022-12-19T16:37:54.825Z,1.76
2022-12-19T16:40:26.989Z,1.81
2022-12-19T16:43:01.640Z,1.84
2022-12-19T16:45:32.024Z,1.89
2022-12-19T16:48:01.020Z,1.81
2022-12-19T16:50:35.206Z,1.72
2022-12-19T16:53:04.200Z,1.73
2022-12-19T16:55:34.703Z,1.77
2022-12-19T16:58:03.844Z,1.76
2022-12-19T17:00:33.327Z,1.64
2022-12-19T17:03:08.194Z,1.63
2022-12-19T17:05:37.945Z,1.64
2022-12-19T17:08:10.929Z,1.65
2022-12-19T17:10:42.035Z,1.63
2022-12-19T17:13:17.865Z,1.69
2022-12-19T17:15:52.589Z,1.67
2022-12-19T17:18:23.406Z,1.68
2022-12-19T17:20:52.076Z,1.73
2022-12-19T17:23:30.190Z,1.73
2022-12-19T17:26:00.408Z,1.57
2022-12-19T17:28:30.229Z,1.66
2022-12-19T17:31:02.144Z,1.63
2022-12-19T17:33:33.927Z,1.69
2022-12-19T17:36:05.411Z,1.74
2022-12-19T17:38:36.098Z,1.73
2022-12-19T17:43:57.218Z,1.70
2022-12-19T17:46:26.714Z,1.64
2022-12-19T17:48:55.543Z,1.70
2022-12-19T17:51:24.914Z,1.78
2022-12-19T17:53:53.623Z,1.73
2022-12-19T17:56:22.763Z,1.81
2022-12-19T17:58:51.880Z,1.79
2022-12-19T18:01:27.130Z,1.78
2022-12-19T18:04:00.640Z,1.74
2022-12-19T18:06:29.075Z,1.80
2022-12-19T18:08:57.729Z,1.87
2022-12-19T18:11:38.394Z,1.84
2022-12-19T18:14:03.924Z,1.76
2022-12-19T18:16:33.936Z,1.78
2022-12-19T18:19:02.632Z,1.76
2022-12-19T18:21:31.328Z,1.80
2022-12-19T18:24:00.166Z,1.74
2022-12-19T18:26:29.669Z,1.79
2022-12-19T18:28:58.322Z,1.76
2022-12-19T18:31:27.638Z,1.74
2022-12-19T18:34:07.035Z,1.80
2022-12-19T18:36:41.527Z,1.83
2022-12-19T18:39:25.056Z,1.72
2022-12-19T18:41:54.848Z,1.71
2022-12-19T18:44:23.698Z,1.75
2022-12-19T18:46:53.286Z,1.85
2022-12-19T18:49:23.007Z,1.80
2022-12-19T18:51:51.820Z,1.66
2022-12-19T18:54:22.695Z,1.77
2022-12-19T18:56:52.076Z,1.77
2022-12-19T18:59:20.818Z,1.74
2022-12-19T19:01:50.952Z,1.70
2022-12-19T19:04:19.783Z,1.70
2022-12-19T19:06:52.432Z,1.64
2022-12-19T19:09:22.752Z,1.69
2022-12-19T19:11:51.522Z,1.64
2022-12-19T19:14:20.093Z,1.67
2022-12-19T19:16:48.848Z,1.69
2022-12-19T19:19:19.360Z,1.72
2022-12-19T19:21:48.131Z,1.63
2022-12-19T19:24:25.012Z,1.61
2022-12-19T19:27:01.372Z,1.63
2022-12-19T19:29:59.323Z,1.48
2022-12-19T19:32:17.912Z,1.48
2022-12-19T19:34:47.066Z,1.45
2022-12-19T19:37:17.560Z,1.32
2022-12-19T19:39:48.852Z,1.30
2022-12-19T19:45:47.673Z,1.31
2022-12-19T19:48:36.298Z,1.24
2022-12-19T19:51:03.095Z,1.19
2022-12-19T19:53:36.289Z,1.31
2022-12-19T19:56:05.585Z,1.30
2022-12-19T20:08:09.309Z,1.35
2022-12-19T20:10:49.022Z,1.27
2022-12-19T20:13:24.237Z,1.24
2022-12-19T20:19:20.296Z,1.19
2022-12-19T20:22:03.546Z,1.19
2022-12-19T20:24:32.817Z,0.73
2022-12-19T20:27:21.328Z,1.13
2022-12-19T20:29:51.988Z,1.14
2022-12-19T20:32:29.638Z,1.07
2022-12-19T20:35:01.355Z,1.05
2022-12-19T20:37:30.090Z,1.02
2022-12-19T20:39:59.360Z,0.89
2022-12-19T20:42:28.654Z,0.81
2022-12-19T20:45:03.270Z,0.84
2022-12-19T20:47:42.482Z,0.78
2022-12-19T20:50:17.895Z,0.77
2022-12-19T20:52:52.259Z,0.74
2022-12-19T20:55:25.629Z,0.77
2022-12-19T20:57:56.702Z,0.68
2022-12-19T21:00:38.924Z,0.72
2022-12-19T21:05:42.603Z,0.78
2022-12-19T21:08:16.157Z,0.80
2022-12-19T21:10:46.618Z,0.70
2022-12-19T21:13:16.227Z,0.56
2022-12-19T21:16:01.182Z,0.58
2022-12-19T21:18:32.236Z,0.53
2022-12-19T21:21:05.525Z,0.50
2022-12-19T21:23:35.068Z,0.36
2022-12-19T21:26:13.063Z,0.42
2022-12-19T21:28:45.371Z,0.41
2022-12-19T21:31:34.824Z,0.30
2022-12-19T21:34:04.391Z,0.36
2022-12-19T21:36:33.680Z,0.28
2022-12-19T21:39:03.202Z,0.18
2022-12-19T21:41:33.301Z,0.26
2022-12-19T21:44:03.931Z,0.16
2022-12-19T21:46:35.867Z,0.16
2022-12-19T21:49:04.892Z,0.13
2022-12-19T21:51:36.882Z,0.17
2022-12-19T21:54:09.358Z,0.19
2022-12-19T21:56:40.589Z,0.08
2022-12-19T21:59:15.563Z,-0.10
2022-12-19T22:01:46.619Z,-0.15
2022-12-19T22:04:25.336Z,-0.25
2022-12-19T22:06:56.547Z,-0.30
2022-12-19T22:09:25.534Z,-0.43
2022-12-19T22:11:55.156Z,-0.49
2022-12-19T22:14:28.027Z,-0.50
2022-12-19T22:16:57.210Z,-0.54
2022-12-19T22:19:27.683Z,-0.58
2022-12-19T22:22:25.484Z,-0.64
2022-12-19T22:24:56.177Z,-0.72
2022-12-19T22:27:25.220Z,-0.77
2022-12-19T22:30:10.561Z,-0.76
2022-12-19T22:42:09.061Z,-0.75
2022-12-19T22:44:28.093Z,-0.81
2022-12-19T22:47:07.707Z,-0.86
2022-12-19T22:49:44.033Z,-0.92
2022-12-19T22:55:31.874Z,-0.97
2022-12-19T22:58:14.905Z,-0.94
2022-12-19T23:00:55.697Z,-1.03
2022-12-19T23:03:30.425Z,-1.12
2022-12-19T23:06:01.682Z,-1.08
2022-12-19T23:08:31.072Z,-1.15
2022-12-19T23:11:09.735Z,-1.18
2022-12-19T23:13:42.937Z,-1.22
2022-12-19T23:16:16.789Z,-1.23
2022-12-19T23:18:45.668Z,-1.27
2022-12-19T23:21:20.312Z,-1.31
2022-12-19T23:23:51.453Z,-1.34
2022-12-19T23:26:29.399Z,-1.34
2022-12-19T23:29:04.023Z,-1.38
2022-12-19T23:31:33.708Z,-1.44
2022-12-19T23:34:03.240Z,-1.46
2022-12-19T23:37:09.119Z,-1.46
2022-12-19T23:39:02.519Z,-1.39
2022-12-19T23:41:31.137Z,-1.40
2022-12-19T23:43:59.835Z,-1.39
2022-12-19T23:46:29.650Z,-1.39
2022-12-19T23:48:58.432Z,-1.36
2022-12-19T23:51:28.522Z,-1.31
2022-12-19T23:53:57.863Z,-1.36
2022-12-19T23:56:31.951Z,-1.35
2022-12-19T23:59:01.545Z,-1.33
